Hauptseite
METAR-TAF:

METAR-TAF

Flughäfen :

Harrisburg, Pennsylvania, Vereinigte Staaten

Breite: 40-13-02N, Länge: 076-51-05W, Höhe: 106 m

Beobachtung

Neuester Wetterbericht von vor 24 Minuten, um 22:56 UTC
Wind 9 kt aus West
Temperatur 16°C
Luftfeuchtigkeit 34%
Luftdruck 1018 hPa
Sichtweite: 16.1 km
Durchbrochene Bewölkung in der Höhe von 7500 ft
Durchbrochene Bewölkung in der Höhe von 10000 ft

METAR: KCXY 112256Z 28009KT 10SM BKN075 BKN100 16/00 A3006 RMK AO2 SLP180 T01560000

Zeit: 19:20 (23:20 UTC)


TAF: fehlend

Wetterbeobachtungen und Prognosen von mehr als 4000 Flughäfen (METAR und TAF Bericht).

Die verfügbaren Stationen werden durch gelbe und rote Markierungen auf der Karte dargestellt.

Führen Sie die Maus auf sie, um den Namen der Station zu sehen.

Darauf klicken, um die Beobachtung von Wetterbeobachtungen und Prognosen zu sehen.

Um die Karte zu ändern : klicken Sie auf den grünen Tasten mit einem schwarzen Kreuz Zum Vergrößern, auf den grünen Button mit einem Gedankenstrich zu verkleinern, oder auf die grünen Pfeile für benachbarte Karten.


METAR-TAF: